createdAt,value
2022-11-06T00:01:50.836Z,100811.63
2022-11-06T00:04:18.939Z,100806.97
2022-11-06T00:06:48.772Z,100807.34
2022-11-06T00:09:19.296Z,100809.59
2022-11-06T00:11:48.847Z,100805.00
2022-11-06T00:14:17.442Z,100793.59
2022-11-06T00:16:47.048Z,100799.66
2022-11-06T00:19:17.368Z,100799.88
2022-11-06T00:21:46.139Z,100795.84
2022-11-06T00:24:15.642Z,100795.59
2022-11-06T00:26:44.110Z,100805.56
2022-11-06T00:29:15.296Z,100794.75
2022-11-06T00:31:43.709Z,100790.72
2022-11-06T00:34:12.106Z,100789.31
2022-11-06T00:36:41.709Z,100784.81
2022-11-06T00:39:12.456Z,100780.91
2022-11-06T00:41:40.491Z,100777.47
2022-11-06T00:44:11.037Z,100775.22
2022-11-06T00:46:39.129Z,100768.22
2022-11-06T00:49:07.288Z,100759.44
2022-11-06T00:51:39.424Z,100755.53
2022-11-06T00:54:12.064Z,100753.28
2022-11-06T00:56:40.325Z,100756.22
2022-11-06T00:59:11.478Z,100754.09
2022-11-06T01:01:41.943Z,100749.69
2022-11-06T01:04:13.889Z,100749.59
2022-11-06T01:06:44.267Z,100742.59
2022-11-06T01:09:15.340Z,100739.28
2022-11-06T01:12:11.891Z,100741.28
2022-11-06T01:14:34.785Z,100735.22
2022-11-06T01:17:02.926Z,100735.81
2022-11-06T01:19:31.131Z,100727.88
2022-11-06T01:21:59.580Z,100721.09
2022-11-06T01:24:30.380Z,100715.41
2022-11-06T01:27:24.934Z,100710.28
2022-11-06T01:29:47.203Z,100722.78
2022-11-06T01:32:16.801Z,100721.69
2022-11-06T01:34:44.820Z,100723.34
2022-11-06T01:37:14.733Z,100709.13
2022-11-06T01:39:44.969Z,100705.09
2022-11-06T01:42:14.624Z,100707.22
2022-11-06T01:45:22.740Z,100707.22
2022-11-06T01:47:51.116Z,100703.78
2022-11-06T01:50:20.110Z,100686.72
2022-11-06T01:52:50.219Z,100688.22
2022-11-06T01:55:24.535Z,100686.06
2022-11-06T01:57:53.126Z,100676.56
2022-11-06T02:00:23.863Z,100675.41
2022-11-06T02:02:52.458Z,100669.97
2022-11-06T02:05:20.916Z,100664.50
2022-11-06T02:07:49.963Z,100664.84
2022-11-06T02:10:18.322Z,100662.38
2022-11-06T02:12:54.570Z,100662.38
2022-11-06T02:15:34.434Z,100651.19
2022-11-06T02:18:16.250Z,100642.41
2022-11-06T02:20:57.513Z,100639.22
2022-11-06T02:24:01.175Z,100635.91
2022-11-06T02:26:51.593Z,100618.22
2022-11-06T02:29:21.990Z,100633.28
2022-11-06T02:31:52.941Z,100623.19
2022-11-06T02:34:24.835Z,100625.19
2022-11-06T02:36:58.016Z,100619.94
2022-11-06T02:39:28.353Z,100616.13
2022-11-06T02:42:00.500Z,100620.69
2022-11-06T02:44:37.206Z,100616.91
2022-11-06T02:47:09.433Z,100622.19
2022-11-06T02:49:41.232Z,100619.44
2022-11-06T02:52:13.856Z,100610.28
2022-11-06T02:54:45.940Z,100594.81
2022-11-06T02:57:18.374Z,100608.81
2022-11-06T02:59:51.484Z,100611.53
2022-11-06T03:02:23.989Z,100600.63
2022-11-06T03:04:56.767Z,100584.47
2022-11-06T03:07:32.265Z,100585.78
2022-11-06T03:10:00.643Z,100583.47
2022-11-06T03:12:33.122Z,100582.91
2022-11-06T03:15:07.661Z,100574.75
2022-11-06T03:17:43.807Z,100579.94
2022-11-06T03:20:21.682Z,100572.47
2022-11-06T03:22:58.797Z,100561.00
2022-11-06T03:25:30.928Z,100560.00
2022-11-06T03:28:06.449Z,100577.69
2022-11-06T03:30:38.005Z,100560.00
2022-11-06T03:33:12.831Z,100566.28
2022-11-06T03:35:45.674Z,100560.59
2022-11-06T03:38:19.136Z,100551.00
2022-11-06T03:40:52.442Z,100544.63
2022-11-06T03:43:25.466Z,100550.41
2022-11-06T03:45:55.211Z,100556.59
2022-11-06T03:48:31.172Z,100538.50
2022-11-06T03:51:06.196Z,100537.69
2022-11-06T03:53:41.255Z,100527.59
2022-11-06T03:56:13.792Z,100521.81
2022-11-06T03:58:48.095Z,100526.69
2022-11-06T04:01:20.239Z,100522.78
2022-11-06T04:03:53.231Z,100520.31
2022-11-06T04:06:26.816Z,100519.50
2022-11-06T04:09:14.975Z,100519.13
2022-11-06T04:12:02.478Z,100520.81
2022-11-06T04:14:34.857Z,100518.91
2022-11-06T04:17:06.834Z,100514.19
2022-11-06T04:19:34.954Z,100507.16
2022-11-06T04:22:22.738Z,100501.63
2022-11-06T04:25:21.277Z,100498.91
2022-11-06T04:28:15.399Z,100504.59
2022-11-06T04:30:55.780Z,100505.44
2022-11-06T04:33:30.055Z,100500.81
2022-11-06T04:36:06.070Z,100502.34
2022-11-06T04:38:41.252Z,100497.16
2022-11-06T04:41:18.832Z,100503.09
2022-11-06T04:43:51.116Z,100500.22
2022-11-06T04:46:25.194Z,100492.19
2022-11-06T04:48:54.847Z,100498.31
2022-11-06T04:51:26.896Z,100490.13
2022-11-06T04:53:56.342Z,100486.81
2022-11-06T04:56:32.882Z,100477.00
2022-11-06T04:59:04.748Z,100476.00
2022-11-06T05:01:34.908Z,100480.94
2022-11-06T05:04:03.247Z,100482.84
2022-11-06T05:06:31.267Z,100476.59
2022-11-06T05:08:59.368Z,100474.44
2022-11-06T05:11:27.380Z,100469.22
2022-11-06T05:13:55.445Z,100468.41
2022-11-06T05:16:23.531Z,100475.50
2022-11-06T05:18:52.944Z,100474.16
2022-11-06T05:21:41.390Z,100474.16
2022-11-06T05:24:09.730Z,100479.31
2022-11-06T05:26:37.723Z,100476.66
2022-11-06T05:29:05.922Z,100483.44
2022-11-06T05:31:34.005Z,100474.16
2022-11-06T05:34:03.815Z,100466.25
2022-11-06T05:36:31.831Z,100453.19
2022-11-06T05:39:00.752Z,100465.09
2022-11-06T05:41:28.971Z,100466.25
2022-11-06T05:43:57.593Z,100450.63
2022-11-06T05:46:46.883Z,100441.63
2022-11-06T05:49:15.121Z,100439.97
2022-11-06T05:51:43.068Z,100439.97
2022-11-06T05:54:11.463Z,100431.78
2022-11-06T05:56:39.610Z,100418.72
2022-11-06T05:59:07.779Z,100411.84
2022-11-06T06:01:36.012Z,100419.81
2022-11-06T06:04:04.388Z,100407.72
2022-11-06T06:06:34.440Z,100410.72
2022-11-06T06:09:02.586Z,100401.38
2022-11-06T06:11:30.723Z,100414.25
2022-11-06T06:13:58.763Z,100413.19
2022-11-06T06:16:26.740Z,100395.16
2022-11-06T06:18:54.745Z,100389.13
2022-11-06T06:21:22.813Z,100392.88
2022-11-06T06:23:52.177Z,100385.28
2022-11-06T06:26:20.116Z,100384.25
2022-11-06T06:28:50.949Z,100378.72
2022-11-06T06:31:19.033Z,100367.59
2022-11-06T06:33:47.243Z,100366.41
2022-11-06T06:36:15.466Z,100350.63
2022-11-06T06:38:43.422Z,100359.63
2022-11-06T06:41:12.939Z,100346.59
2022-11-06T06:43:41.016Z,100352.53
2022-11-06T06:46:09.083Z,100340.38
2022-11-06T06:48:37.357Z,100338.41
2022-11-06T06:51:07.913Z,100324.25
2022-11-06T06:53:36.792Z,100319.25
2022-11-06T06:56:05.262Z,100311.22
2022-11-06T06:58:35.394Z,100306.81
2022-11-06T07:01:06.227Z,100301.13
2022-11-06T07:03:34.382Z,100288.88
2022-11-06T07:06:02.374Z,100281.28
2022-11-06T07:08:31.219Z,100288.31
2022-11-06T07:11:02.841Z,100289.53
2022-11-06T07:13:35.889Z,100291.34
2022-11-06T07:16:07.396Z,100275.81
2022-11-06T07:18:35.465Z,100269.22
2022-11-06T07:21:05.799Z,100277.97
2022-11-06T07:23:34.579Z,100280.69
2022-11-06T07:26:03.421Z,100278.56
2022-11-06T07:28:31.656Z,100275.81
2022-11-06T07:31:00.944Z,100281.22
2022-11-06T07:33:30.690Z,100279.69
2022-11-06T07:36:03.668Z,100275.81
2022-11-06T07:38:31.853Z,100268.69
2022-11-06T07:41:02.857Z,100271.34
2022-11-06T07:43:30.929Z,100283.94
2022-11-06T07:46:00.662Z,100269.84
2022-11-06T07:48:31.207Z,100257.84
2022-11-06T07:51:00.234Z,100266.31
2022-11-06T07:53:28.221Z,100257.34
2022-11-06T07:55:58.624Z,100261.09
2022-11-06T07:58:27.033Z,100273.28
2022-11-06T08:00:57.132Z,100251.66
2022-11-06T08:03:26.759Z,100264.72
2022-11-06T08:05:56.193Z,100261.41
2022-11-06T08:08:24.459Z,100265.00
2022-11-06T08:10:53.868Z,100267.13
2022-11-06T08:13:22.112Z,100270.16
2022-11-06T08:15:50.283Z,100277.59
2022-11-06T08:18:18.457Z,100273.47
2022-11-06T08:20:46.632Z,100274.28
2022-11-06T08:23:16.196Z,100284.69
2022-11-06T08:25:44.410Z,100261.41
2022-11-06T08:28:12.836Z,100278.56
2022-11-06T08:30:41.217Z,100304.22
2022-11-06T08:33:09.981Z,100308.56
2022-11-06T08:35:38.586Z,100299.03
2022-11-06T08:38:06.611Z,100291.34
2022-11-06T08:40:38.315Z,100301.69
2022-11-06T08:43:10.154Z,100306.34
2022-11-06T08:45:39.424Z,100307.91
2022-11-06T08:48:09.147Z,100308.41
2022-11-06T08:50:38.689Z,100292.78
2022-11-06T08:53:07.413Z,100292.16
2022-11-06T08:55:38.574Z,100277.38
2022-11-06T08:58:07.623Z,100275.47
2022-11-06T09:00:36.737Z,100261.47
2022-11-06T09:03:09.963Z,100270.75
2022-11-06T09:05:40.707Z,100255.72
2022-11-06T09:08:09.236Z,100251.31
2022-11-06T09:10:40.518Z,100252.16
2022-11-06T09:13:09.918Z,100254.06
2022-11-06T09:15:38.440Z,100267.69
2022-11-06T09:18:06.599Z,100272.06
2022-11-06T09:20:34.837Z,100251.59
2022-11-06T09:23:03.691Z,100245.28
2022-11-06T09:25:32.393Z,100236.88
2022-11-06T09:28:01.893Z,100246.75
2022-11-06T09:30:31.915Z,100243.09
2022-11-06T09:33:01.920Z,100246.63
2022-11-06T09:35:31.872Z,100229.69
2022-11-06T09:38:03.633Z,100235.22
2022-11-06T09:40:35.112Z,100229.47
2022-11-06T09:43:14.684Z,100228.94
2022-11-06T09:45:43.410Z,100210.69
2022-11-06T09:48:21.669Z,100224.63
2022-11-06T09:50:54.683Z,100223.81
2022-11-06T09:53:29.911Z,100228.38
2022-11-06T09:56:00.526Z,100235.22
2022-11-06T09:58:36.517Z,100237.69
2022-11-06T10:01:21.068Z,100235.47
2022-11-06T10:03:56.420Z,100218.78
2022-11-06T10:06:25.518Z,100214.88
2022-11-06T10:08:59.339Z,100199.22
2022-11-06T10:11:46.902Z,100187.50
2022-11-06T10:14:30.302Z,100181.91
2022-11-06T10:17:06.538Z,100180.50
2022-11-06T10:19:41.378Z,100166.00
2022-11-06T10:22:15.893Z,100169.16
2022-11-06T10:24:47.471Z,100174.84
2022-11-06T10:27:18.199Z,100172.31
2022-11-06T10:30:07.338Z,100185.66
2022-11-06T10:33:05.236Z,100179.66
2022-11-06T10:35:38.503Z,100192.63
2022-11-06T10:38:12.014Z,100185.25
2022-11-06T10:40:40.895Z,100186.34
2022-11-06T10:43:22.386Z,100184.69
2022-11-06T10:45:57.894Z,100195.03
2022-11-06T10:48:31.124Z,100198.06
2022-11-06T10:51:13.199Z,100189.00
2022-11-06T10:53:51.306Z,100184.13
2022-11-06T10:56:36.413Z,100181.13
2022-11-06T10:59:05.119Z,100187.69
2022-11-06T11:01:35.129Z,100179.19
2022-11-06T11:04:03.443Z,100177.78
2022-11-06T11:06:31.444Z,100171.84
2022-11-06T11:08:59.457Z,100172.34
2022-11-06T11:11:28.982Z,100167.13
2022-11-06T11:14:24.107Z,100159.47
2022-11-06T11:16:54.019Z,100142.22
2022-11-06T11:19:28.171Z,100142.03
2022-11-06T11:21:58.494Z,100142.03
2022-11-06T11:24:26.845Z,100136.28
2022-11-06T11:26:57.568Z,100138.81
2022-11-06T11:29:28.668Z,100137.25
2022-11-06T11:32:01.019Z,100143.19
2022-11-06T11:34:31.451Z,100142.69
2022-11-06T11:37:02.914Z,100143.78
2022-11-06T11:39:32.892Z,100135.66
2022-11-06T11:42:34.396Z,100126.28
2022-11-06T11:45:20.484Z,100118.63
2022-11-06T11:47:52.506Z,100112.00
2022-11-06T11:50:32.076Z,100105.00
2022-11-06T11:53:10.412Z,100104.41
2022-11-06T11:55:41.846Z,100098.97
2022-11-06T11:58:20.471Z,100089.16
2022-11-06T12:00:57.099Z,100094.34
2022-11-06T12:03:30.226Z,100088.06
2022-11-06T12:06:09.804Z,100084.16
2022-11-06T12:08:40.297Z,100085.78
2022-11-06T12:11:11.844Z,100076.72
2022-11-06T12:13:39.952Z,100063.69
2022-11-06T12:16:14.613Z,100055.53
2022-11-06T12:18:48.059Z,100049.50
2022-11-06T12:21:23.077Z,100053.03
2022-11-06T12:23:56.641Z,100061.78
2022-11-06T12:26:36.627Z,100048.09
2022-11-06T12:29:15.584Z,100032.34
2022-11-06T12:31:49.428Z,100028.22
2022-11-06T12:34:24.571Z,100026.91
2022-11-06T12:37:05.879Z,100012.97
2022-11-06T12:39:38.054Z,100006.13
2022-11-06T12:42:12.492Z,100008.72
2022-11-06T12:44:40.705Z,100004.28
2022-11-06T12:47:26.416Z,99996.94
2022-11-06T12:50:30.216Z,99989.91
2022-11-06T12:53:07.989Z,99988.91
2022-11-06T12:55:40.717Z,99983.72
2022-11-06T12:58:29.812Z,99974.28
2022-11-06T13:01:08.363Z,99972.31
2022-11-06T13:04:01.906Z,99969.13
2022-11-06T13:06:57.226Z,99966.41
2022-11-06T13:09:31.555Z,99965.59
2022-11-06T13:12:08.207Z,99955.84
2022-11-06T13:14:43.765Z,99970.53
2022-11-06T13:17:20.522Z,99955.84
2022-11-06T13:19:56.535Z,99954.81
2022-11-06T13:22:31.042Z,99958.38
2022-11-06T13:25:08.432Z,99954.06
2022-11-06T13:27:43.635Z,99945.78
2022-11-06T13:30:18.759Z,99952.84
2022-11-06T13:33:01.285Z,99949.69
2022-11-06T13:35:29.959Z,99931.38
2022-11-06T13:38:02.489Z,99930.25
2022-11-06T13:40:36.208Z,99941.09
2022-11-06T13:43:08.974Z,99929.63
2022-11-06T13:45:47.906Z,99932.91
2022-11-06T13:48:34.583Z,99932.28
2022-11-06T13:51:13.718Z,99939.31
2022-11-06T13:53:52.810Z,99940.66
2022-11-06T13:56:39.048Z,99929.25
2022-11-06T13:59:46.039Z,99933.81
2022-11-06T14:02:30.524Z,99951.16
2022-11-06T14:05:26.287Z,99938.97
2022-11-06T14:07:56.248Z,99950.16
2022-11-06T14:10:37.198Z,99956.25
2022-11-06T14:13:08.815Z,99955.97
2022-11-06T14:15:41.953Z,99949.41
2022-11-06T14:18:21.462Z,99958.06
2022-11-06T14:20:53.314Z,99953.13
2022-11-06T14:23:53.863Z,99932.94
2022-11-06T14:26:43.044Z,99917.28
2022-11-06T14:29:55.763Z,99904.47
2022-11-06T14:32:42.575Z,99916.00
2022-11-06T14:35:47.769Z,99920.72
2022-11-06T14:38:39.589Z,99925.25
2022-11-06T14:41:48.170Z,99903.06
2022-11-06T14:44:27.228Z,99912.66
2022-11-06T14:46:57.728Z,99908.78
2022-11-06T14:49:34.393Z,99917.19
2022-11-06T14:52:05.803Z,99919.19
2022-11-06T14:54:36.877Z,99916.78
2022-11-06T14:57:05.210Z,99919.44
2022-11-06T14:59:38.766Z,99922.06
2022-11-06T15:02:18.604Z,99920.97
2022-11-06T15:04:50.211Z,99926.09
2022-11-06T15:08:03.389Z,99929.63
2022-11-06T15:10:56.159Z,99931.22
2022-11-06T15:13:31.077Z,99932.72
2022-11-06T15:16:12.282Z,99929.13
2022-11-06T15:18:47.086Z,99934.03
2022-11-06T15:21:25.599Z,99931.81
2022-11-06T15:24:04.529Z,99925.53
2022-11-06T15:26:37.472Z,99925.19
2022-11-06T15:29:18.255Z,99933.28
2022-11-06T15:31:53.569Z,99937.66
2022-11-06T15:34:29.209Z,99943.56
2022-11-06T15:37:05.832Z,99936.47
2022-11-06T15:39:40.517Z,99950.06
2022-11-06T15:42:10.166Z,99959.22
2022-11-06T15:44:41.540Z,99964.38
2022-11-06T15:47:21.492Z,99966.44
2022-11-06T15:49:49.925Z,99973.19
2022-11-06T15:52:19.288Z,99973.44
2022-11-06T15:54:49.227Z,99982.56
2022-11-06T15:57:22.544Z,99983.88
2022-11-06T15:59:51.009Z,99982.25
2022-11-06T16:02:23.300Z,99984.84
2022-11-06T16:04:51.633Z,99984.28
2022-11-06T16:07:20.882Z,99989.13
2022-11-06T16:09:51.541Z,99985.75
2022-11-06T16:12:23.129Z,99985.16
2022-11-06T16:14:51.159Z,99985.88
2022-11-06T16:17:26.531Z,99980.19
2022-11-06T16:19:59.082Z,99979.78
2022-11-06T16:22:31.029Z,99989.78
2022-11-06T16:25:01.633Z,99999.59
2022-11-06T16:27:35.352Z,99990.28
2022-11-06T16:30:04.047Z,99994.53
2022-11-06T16:32:40.044Z,99982.63
2022-11-06T16:35:32.632Z,100008.94
2022-11-06T16:38:42.250Z,100005.91
2022-11-06T16:41:12.675Z,100007.53
2022-11-06T16:43:40.744Z,100006.72
2022-11-06T16:46:09.486Z,99997.16
2022-11-06T16:48:42.564Z,99994.44
2022-11-06T16:51:15.532Z,99993.75
2022-11-06T16:53:52.442Z,100001.66
2022-11-06T16:56:25.279Z,99995.63
2022-11-06T16:58:57.592Z,100002.63
2022-11-06T17:01:26.953Z,100005.56
2022-11-06T17:04:00.705Z,100002.75
2022-11-06T17:06:31.072Z,100009.91
2022-11-06T17:09:07.842Z,100011.22
2022-11-06T17:11:38.834Z,100019.84
2022-11-06T17:14:18.772Z,100022.44
2022-11-06T17:16:49.566Z,100024.59
2022-11-06T17:19:19.789Z,100028.00
2022-11-06T17:21:47.984Z,100032.84
2022-11-06T17:24:36.564Z,100039.94
2022-11-06T17:27:04.661Z,100034.94
2022-11-06T17:29:33.957Z,100048.66
2022-11-06T17:32:02.192Z,100045.22
2022-11-06T17:34:31.638Z,100040.59
2022-11-06T17:36:59.720Z,100036.22
2022-11-06T17:39:27.701Z,100045.69
2022-11-06T17:41:55.829Z,100038.00
2022-11-06T17:44:23.950Z,100053.72
2022-11-06T17:46:52.000Z,100053.22
2022-11-06T17:49:19.994Z,100059.59
2022-11-06T17:52:04.445Z,100056.78
2022-11-06T17:54:33.567Z,100059.50
2022-11-06T17:57:03.423Z,100055.09
2022-11-06T17:59:31.885Z,100064.44
2022-11-06T18:02:00.877Z,100062.44
2022-11-06T18:04:31.799Z,100058.41
2022-11-06T18:07:02.310Z,100070.56
2022-11-06T18:09:30.691Z,100076.59
2022-11-06T18:11:59.218Z,100075.16
2022-11-06T18:14:28.981Z,100080.94
2022-11-06T18:16:57.073Z,100075.97
2022-11-06T18:19:26.354Z,100083.31
2022-11-06T18:21:55.095Z,100084.81
2022-11-06T18:24:24.886Z,100085.41
2022-11-06T18:26:53.378Z,100096.88
2022-11-06T18:29:21.599Z,100090.25
2022-11-06T18:31:49.932Z,100094.84
2022-11-06T18:34:21.794Z,100097.81
2022-11-06T18:36:51.223Z,100100.53
2022-11-06T18:39:19.901Z,100103.09
2022-11-06T18:41:49.579Z,100109.47
2022-11-06T18:44:18.505Z,100103.69
2022-11-06T18:46:49.123Z,100104.88
2022-11-06T18:49:18.084Z,100109.56
2022-11-06T18:51:46.107Z,100118.31
2022-11-06T18:54:14.155Z,100117.69
2022-11-06T18:56:42.338Z,100108.41
2022-11-06T18:59:16.797Z,100111.72
2022-11-06T19:01:44.903Z,100119.59
2022-11-06T19:04:13.286Z,100111.25
2022-11-06T19:06:42.396Z,100117.13
2022-11-06T19:09:11.432Z,100117.13
2022-11-06T19:11:39.620Z,100115.72
2022-11-06T19:14:07.881Z,100124.94
2022-11-06T19:16:37.376Z,100125.38
2022-11-06T19:19:06.641Z,100132.94
2022-11-06T19:21:35.624Z,100132.94
2022-11-06T19:24:05.608Z,100135.03
2022-11-06T19:26:35.531Z,100143.41
2022-11-06T19:29:05.082Z,100152.59
2022-11-06T19:31:33.998Z,100147.66
2022-11-06T19:34:04.379Z,100147.19
2022-11-06T19:36:32.688Z,100158.25
2022-11-06T19:39:00.825Z,100156.59
2022-11-06T19:41:29.776Z,100158.03
2022-11-06T19:43:57.901Z,100152.38
2022-11-06T19:46:32.393Z,100154.72
2022-11-06T19:49:05.401Z,100154.97
2022-11-06T19:51:34.302Z,100159.31
2022-11-06T19:54:02.501Z,100158.13
2022-11-06T19:56:30.605Z,100159.78
2022-11-06T19:58:59.199Z,100151.03
2022-11-06T20:01:27.274Z,100161.88
2022-11-06T20:03:55.623Z,100167.69
2022-11-06T20:06:27.367Z,100169.00
2022-11-06T20:08:55.642Z,100165.47
2022-11-06T20:11:24.212Z,100161.44
2022-11-06T20:13:52.331Z,100165.94
2022-11-06T20:16:21.365Z,100176.06
2022-11-06T20:18:52.246Z,100179.22
2022-11-06T20:21:21.073Z,100181.47
2022-11-06T20:23:50.680Z,100186.06
2022-11-06T20:26:19.438Z,100190.69
2022-11-06T20:28:48.501Z,100184.03
2022-11-06T20:31:19.641Z,100186.91
2022-11-06T20:33:47.735Z,100188.53
2022-11-06T20:36:18.913Z,100188.31
2022-11-06T20:38:50.710Z,100191.84
2022-11-06T20:41:20.524Z,100186.69
2022-11-06T20:43:48.853Z,100199.38
2022-11-06T20:46:18.635Z,100205.41
2022-11-06T20:48:47.592Z,100204.34
2022-11-06T20:51:17.144Z,100210.97
2022-11-06T20:53:45.255Z,100214.28
2022-11-06T20:56:17.403Z,100229.97
2022-11-06T20:58:46.876Z,100215.19
2022-11-06T21:01:18.329Z,100217.22
2022-11-06T21:03:47.521Z,100214.28
2022-11-06T21:06:16.095Z,100225.59
2022-11-06T21:08:45.161Z,100229.34
2022-11-06T21:11:16.880Z,100238.09
2022-11-06T21:13:48.794Z,100237.63
2022-11-06T21:16:18.749Z,100233.13
2022-11-06T21:18:47.083Z,100234.78
2022-11-06T21:21:17.670Z,100226.78
2022-11-06T21:23:45.808Z,100231.38
2022-11-06T21:26:16.365Z,100228.22
2022-11-06T21:28:46.233Z,100228.66
2022-11-06T21:31:17.786Z,100234.69
2022-11-06T21:33:48.053Z,100244.69
2022-11-06T21:36:18.020Z,100240.13
2022-11-06T21:38:46.164Z,100252.25
2022-11-06T21:41:16.509Z,100243.53
2022-11-06T21:43:48.072Z,100249.75
2022-11-06T21:46:16.469Z,100245.41
2022-11-06T21:48:46.736Z,100242.59
2022-11-06T21:51:18.822Z,100242.59
2022-11-06T21:54:05.054Z,100237.41
2022-11-06T21:56:33.474Z,100244.59
2022-11-06T21:59:04.475Z,100241.97
2022-11-06T22:01:32.949Z,100245.31
2022-11-06T22:04:01.304Z,100240.34
2022-11-06T22:06:30.176Z,100245.16
2022-11-06T22:08:59.638Z,100239.28
2022-11-06T22:11:30.246Z,100237.03
2022-11-06T22:14:00.796Z,100242.84
2022-11-06T22:16:35.751Z,100240.84
2022-11-06T22:19:06.675Z,100243.34
2022-11-06T22:21:35.805Z,100244.97
2022-11-06T22:24:04.306Z,100244.75
2022-11-06T22:26:34.638Z,100252.06
2022-11-06T22:29:09.875Z,100235.19
2022-11-06T22:31:39.738Z,100237.78
2022-11-06T22:34:07.735Z,100241.13
2022-11-06T22:36:38.411Z,100236.03
2022-11-06T22:39:07.781Z,100237.72
2022-11-06T22:41:36.099Z,100244.19
2022-11-06T22:44:05.288Z,100233.56
2022-11-06T22:46:34.391Z,100236.50
2022-11-06T22:49:04.279Z,100239.34
2022-11-06T22:51:37.856Z,100240.78
2022-11-06T22:54:06.398Z,100239.28
2022-11-06T22:56:36.437Z,100244.31
2022-11-06T22:59:09.660Z,100239.34
2022-11-06T23:01:42.322Z,100242.00
2022-11-06T23:04:15.925Z,100248.22
2022-11-06T23:06:45.208Z,100252.91
2022-11-06T23:09:13.965Z,100249.38
2022-11-06T23:11:42.280Z,100252.47
2022-11-06T23:14:10.304Z,100248.44
2022-11-06T23:16:55.792Z,100250.56
2022-11-06T23:19:25.972Z,100241.75
2022-11-06T23:22:14.275Z,100248.88
2022-11-06T23:24:42.717Z,100247.03
2022-11-06T23:27:11.340Z,100244.56
2022-11-06T23:29:39.567Z,100248.09
2022-11-06T23:32:08.298Z,100240.56
2022-11-06T23:34:37.779Z,100242.00
2022-11-06T23:37:05.828Z,100244.19
2022-11-06T23:39:33.835Z,100248.09
2022-11-06T23:42:01.955Z,100247.97
2022-11-06T23:44:47.315Z,100243.59
2022-11-06T23:47:15.569Z,100245.03
2022-11-06T23:49:44.989Z,100251.16
2022-11-06T23:52:13.145Z,100249.94
2022-11-06T23:54:41.192Z,100249.94
2022-11-06T23:57:10.182Z,100247.81
2022-11-06T23:59:38.921Z,100235.34
